sensor_id;sensor_type;location;lat;lon;timestamp;pressure;altitude;pressure_sealevel;temperature;humidity
78064;BME280;67429;51.596;-3.264;2023-03-01T00:00:23;101158.15;;;2.95;59.04
78064;BME280;67429;51.596;-3.264;2023-03-01T00:02:48;101151.92;;;3.72;56.17
78064;BME280;67429;51.596;-3.264;2023-03-01T00:05:14;101159.72;;;3.43;55.89
78064;BME280;67429;51.596;-3.264;2023-03-01T00:07:40;101156.37;;;2.73;58.01
78064;BME280;67429;51.596;-3.264;2023-03-01T00:10:06;101159.71;;;2.67;57.78
78064;BME280;67429;51.596;-3.264;2023-03-01T00:12:31;101160.17;;;2.29;59.76
78064;BME280;67429;51.596;-3.264;2023-03-01T00:14:58;101161.66;;;2.66;57.63
78064;BME280;67429;51.596;-3.264;2023-03-01T00:17:23;101156.71;;;3.45;57.15
78064;BME280;67429;51.596;-3.264;2023-03-01T00:19:49;101156.55;;;3.13;56.77
78064;BME280;67429;51.596;-3.264;2023-03-01T00:22:14;101161.21;;;2.81;57.11
78064;BME280;67429;51.596;-3.264;2023-03-01T00:24:40;101168.39;;;3.50;55.50
78064;BME280;67429;51.596;-3.264;2023-03-01T00:27:06;101162.63;;;2.90;56.84
78064;BME280;67429;51.596;-3.264;2023-03-01T00:29:32;101160.82;;;2.34;58.81
78064;BME280;67429;51.596;-3.264;2023-03-01T00:31:58;101166.92;;;3.02;57.61
78064;BME280;67429;51.596;-3.264;2023-03-01T00:34:23;101169.13;;;3.72;55.79
78064;BME280;67429;51.596;-3.264;2023-03-01T00:36:49;101165.56;;;3.29;56.65
78064;BME280;67429;51.596;-3.264;2023-03-01T00:39:15;101158.77;;;2.54;59.46
78064;BME280;67429;51.596;-3.264;2023-03-01T00:41:41;101161.67;;;2.64;59.50
78064;BME280;67429;51.596;-3.264;2023-03-01T00:44:06;101158.08;;;2.35;60.75
78064;BME280;67429;51.596;-3.264;2023-03-01T00:46:32;101156.21;;;2.73;60.14
78064;BME280;67429;51.596;-3.264;2023-03-01T00:48:58;101159.19;;;2.20;61.30
78064;BME280;67429;51.596;-3.264;2023-03-01T00:51:25;101157.29;;;2.19;61.45
78064;BME280;67429;51.596;-3.264;2023-03-01T00:53:51;101153.33;;;1.52;64.13
78064;BME280;67429;51.596;-3.264;2023-03-01T00:56:15;101157.55;;;2.34;61.93
78064;BME280;67429;51.596;-3.264;2023-03-01T00:58:41;101153.36;;;2.59;62.10
78064;BME280;67429;51.596;-3.264;2023-03-01T01:01:11;101150.49;;;3.19;60.37
78064;BME280;67429;51.596;-3.264;2023-03-01T01:03:31;101148.19;;;2.73;61.49
78064;BME280;67429;51.596;-3.264;2023-03-01T01:05:57;101148.94;;;2.85;61.92
78064;BME280;67429;51.596;-3.264;2023-03-01T01:08:22;101147.32;;;2.85;60.90
78064;BME280;67429;51.596;-3.264;2023-03-01T01:10:48;101145.90;;;3.08;61.32
78064;BME280;67429;51.596;-3.264;2023-03-01T01:13:14;101146.38;;;2.63;62.60
78064;BME280;67429;51.596;-3.264;2023-03-01T01:15:40;101150.19;;;2.22;64.06
78064;BME280;67429;51.596;-3.264;2023-03-01T01:18:06;101146.09;;;1.96;64.80
78064;BME280;67429;51.596;-3.264;2023-03-01T01:20:31;101145.06;;;1.81;66.52
78064;BME280;67429;51.596;-3.264;2023-03-01T01:22:57;101147.53;;;1.55;66.19
78064;BME280;67429;51.596;-3.264;2023-03-01T01:25:23;101146.60;;;3.11;62.89
78064;BME280;67429;51.596;-3.264;2023-03-01T01:27:48;101143.39;;;2.75;63.65
78064;BME280;67429;51.596;-3.264;2023-03-01T01:30:14;101147.16;;;2.08;65.19
78064;BME280;67429;51.596;-3.264;2023-03-01T01:32:39;101144.15;;;1.82;66.42
78064;BME280;67429;51.596;-3.264;2023-03-01T01:35:06;101142.42;;;2.38;64.91
78064;BME280;67429;51.596;-3.264;2023-03-01T01:37:31;101144.65;;;2.35;64.10
78064;BME280;67429;51.596;-3.264;2023-03-01T01:39:57;101144.01;;;2.69;63.56
78064;BME280;67429;51.596;-3.264;2023-03-01T01:42:22;101139.63;;;2.67;63.29
78064;BME280;67429;51.596;-3.264;2023-03-01T01:44:48;101139.97;;;2.47;63.30
78064;BME280;67429;51.596;-3.264;2023-03-01T01:47:16;101131.06;;;2.02;65.20
78064;BME280;67429;51.596;-3.264;2023-03-01T01:49:42;101127.41;;;2.85;63.12
78064;BME280;67429;51.596;-3.264;2023-03-01T01:52:09;101125.52;;;2.29;63.86
78064;BME280;67429;51.596;-3.264;2023-03-01T01:54:37;101120.30;;;3.50;61.95
78064;BME280;67429;51.596;-3.264;2023-03-01T01:56:59;101113.83;;;2.24;63.81
78064;BME280;67429;51.596;-3.264;2023-03-01T01:59:23;101110.54;;;3.48;61.87
78064;BME280;67429;51.596;-3.264;2023-03-01T02:01:47;101104.61;;;3.01;62.39
78064;BME280;67429;51.596;-3.264;2023-03-01T02:04:13;101107.82;;;3.08;63.08
78064;BME280;67429;51.596;-3.264;2023-03-01T02:06:44;101107.71;;;1.96;65.68
78064;BME280;67429;51.596;-3.264;2023-03-01T02:09:11;101107.49;;;2.42;65.25
78064;BME280;67429;51.596;-3.264;2023-03-01T02:11:31;101114.97;;;1.97;66.24
78064;BME280;67429;51.596;-3.264;2023-03-01T02:13:56;101111.52;;;1.52;68.26
78064;BME280;67429;51.596;-3.264;2023-03-01T02:16:21;101104.58;;;2.02;66.52
78064;BME280;67429;51.596;-3.264;2023-03-01T02:18:47;101106.78;;;2.60;64.40
78064;BME280;67429;51.596;-3.264;2023-03-01T02:21:23;101098.91;;;2.44;65.90
78064;BME280;67429;51.596;-3.264;2023-03-01T02:23:39;101093.46;;;1.76;67.55
78064;BME280;67429;51.596;-3.264;2023-03-01T02:26:07;101090.61;;;2.95;64.04
78064;BME280;67429;51.596;-3.264;2023-03-01T02:28:31;101083.41;;;1.92;66.89
78064;BME280;67429;51.596;-3.264;2023-03-01T02:30:56;101088.00;;;1.75;67.29
78064;BME280;67429;51.596;-3.264;2023-03-01T02:33:22;101083.80;;;1.39;69.41
78064;BME280;67429;51.596;-3.264;2023-03-01T02:35:48;101083.79;;;1.53;68.26
78064;BME280;67429;51.596;-3.264;2023-03-01T02:38:13;101078.71;;;2.52;65.55
78064;BME280;67429;51.596;-3.264;2023-03-01T02:40:40;101078.61;;;2.34;64.65
78064;BME280;67429;51.596;-3.264;2023-03-01T02:43:08;101078.69;;;1.88;66.73
78064;BME280;67429;51.596;-3.264;2023-03-01T02:45:30;101074.60;;;1.89;66.89
78064;BME280;67429;51.596;-3.264;2023-03-01T02:47:57;101079.77;;;1.70;66.22
78064;BME280;67429;51.596;-3.264;2023-03-01T02:52:54;101072.54;;;1.88;66.37
78064;BME280;67429;51.596;-3.264;2023-03-01T02:55:15;101075.87;;;3.14;63.41
78064;BME280;67429;51.596;-3.264;2023-03-01T02:57:44;101070.83;;;1.45;65.74
78064;BME280;67429;51.596;-3.264;2023-03-01T03:00:08;101075.02;;;2.82;63.12
78064;BME280;67429;51.596;-3.264;2023-03-01T03:02:31;101073.25;;;2.33;64.05
78064;BME280;67429;51.596;-3.264;2023-03-01T03:04:57;101077.52;;;3.20;62.05
78064;BME280;67429;51.596;-3.264;2023-03-01T03:07:23;101081.43;;;3.26;61.25
78064;BME280;67429;51.596;-3.264;2023-03-01T03:09:48;101078.06;;;2.66;63.37
78064;BME280;67429;51.596;-3.264;2023-03-01T03:12:14;101072.54;;;2.40;63.99
78064;BME280;67429;51.596;-3.264;2023-03-01T03:14:40;101074.19;;;3.47;61.23
78064;BME280;67429;51.596;-3.264;2023-03-01T03:17:06;101071.55;;;3.86;59.66
78064;BME280;67429;51.596;-3.264;2023-03-01T03:19:32;101072.19;;;3.87;60.13
78064;BME280;67429;51.596;-3.264;2023-03-01T03:21:58;101070.25;;;3.40;61.00
78064;BME280;67429;51.596;-3.264;2023-03-01T03:24:23;101069.13;;;2.54;63.35
78064;BME280;67429;51.596;-3.264;2023-03-01T03:26:49;101069.33;;;3.07;61.82
78064;BME280;67429;51.596;-3.264;2023-03-01T03:29:15;101066.30;;;3.52;61.55
78064;BME280;67429;51.596;-3.264;2023-03-01T03:31:40;101061.13;;;2.30;63.25
78064;BME280;67429;51.596;-3.264;2023-03-01T03:34:06;101059.57;;;2.68;63.96
78064;BME280;67429;51.596;-3.264;2023-03-01T03:36:32;101058.78;;;2.64;63.60
78064;BME280;67429;51.596;-3.264;2023-03-01T03:38:58;101058.83;;;2.36;65.67
78064;BME280;67429;51.596;-3.264;2023-03-01T03:41:24;101062.39;;;1.44;68.00
78064;BME280;67429;51.596;-3.264;2023-03-01T03:43:49;101062.54;;;1.39;67.66
78064;BME280;67429;51.596;-3.264;2023-03-01T03:46:15;101059.84;;;1.46;69.11
78064;BME280;67429;51.596;-3.264;2023-03-01T03:48:43;101056.52;;;1.40;68.55
78064;BME280;67429;51.596;-3.264;2023-03-01T03:51:10;101049.68;;;0.93;69.48
78064;BME280;67429;51.596;-3.264;2023-03-01T03:53:33;101045.44;;;1.51;69.30
78064;BME280;67429;51.596;-3.264;2023-03-01T03:55:59;101047.20;;;1.32;69.41
78064;BME280;67429;51.596;-3.264;2023-03-01T03:58:25;101040.25;;;1.13;71.13
78064;BME280;67429;51.596;-3.264;2023-03-01T04:00:52;101039.97;;;1.03;71.21
78064;BME280;67429;51.596;-3.264;2023-03-01T04:03:17;101040.82;;;1.51;69.35
78064;BME280;67429;51.596;-3.264;2023-03-01T04:05:42;101043.05;;;1.23;68.85
78064;BME280;67429;51.596;-3.264;2023-03-01T04:08:08;101040.79;;;1.63;67.92
78064;BME280;67429;51.596;-3.264;2023-03-01T04:10:36;101044.34;;;2.30;65.81
78064;BME280;67429;51.596;-3.264;2023-03-01T04:12:59;101047.89;;;2.52;64.13
78064;BME280;67429;51.596;-3.264;2023-03-01T04:15:26;101045.98;;;2.27;65.28
78064;BME280;67429;51.596;-3.264;2023-03-01T04:17:52;101047.95;;;2.12;65.30
78064;BME280;67429;51.596;-3.264;2023-03-01T04:20:19;101044.14;;;2.36;65.61
78064;BME280;67429;51.596;-3.264;2023-03-01T04:22:43;101042.04;;;2.46;64.60
78064;BME280;67429;51.596;-3.264;2023-03-01T04:25:08;101041.77;;;2.13;66.52
78064;BME280;67429;51.596;-3.264;2023-03-01T04:27:34;101038.71;;;1.76;67.59
78064;BME280;67429;51.596;-3.264;2023-03-01T04:29:59;101036.86;;;0.87;69.82
78064;BME280;67429;51.596;-3.264;2023-03-01T04:32:25;101033.97;;;1.56;67.80
78064;BME280;67429;51.596;-3.264;2023-03-01T04:34:51;101032.48;;;2.79;64.90
78064;BME280;67429;51.596;-3.264;2023-03-01T04:37:17;101031.74;;;1.67;65.28
78064;BME280;67429;51.596;-3.264;2023-03-01T04:39:43;101022.57;;;2.19;64.52
78064;BME280;67429;51.596;-3.264;2023-03-01T04:42:08;101022.49;;;3.02;62.90
78064;BME280;67429;51.596;-3.264;2023-03-01T04:44:34;101025.73;;;3.40;60.37
78064;BME280;67429;51.596;-3.264;2023-03-01T04:47:00;101022.25;;;2.64;60.76
78064;BME280;67429;51.596;-3.264;2023-03-01T04:49:26;101016.66;;;2.17;63.54
78064;BME280;67429;51.596;-3.264;2023-03-01T04:51:51;101015.88;;;2.55;62.39
78064;BME280;67429;51.596;-3.264;2023-03-01T04:54:17;101014.06;;;1.79;64.10
78064;BME280;67429;51.596;-3.264;2023-03-01T04:56:43;101006.64;;;2.51;63.98
78064;BME280;67429;51.596;-3.264;2023-03-01T04:59:10;101005.73;;;2.19;64.43
78064;BME280;67429;51.596;-3.264;2023-03-01T05:01:34;101004.45;;;1.65;65.37
78064;BME280;67429;51.596;-3.264;2023-03-01T05:04:00;101004.60;;;1.68;64.85
78064;BME280;67429;51.596;-3.264;2023-03-01T05:06:25;101005.73;;;1.58;65.54
78064;BME280;67429;51.596;-3.264;2023-03-01T05:08:51;101010.89;;;1.16;67.51
78064;BME280;67429;51.596;-3.264;2023-03-01T05:11:16;101016.55;;;1.59;66.00
78064;BME280;67429;51.596;-3.264;2023-03-01T05:13:42;101013.30;;;1.43;65.23
78064;BME280;67429;51.596;-3.264;2023-03-01T05:16:09;101010.15;;;1.01;67.45
78064;BME280;67429;51.596;-3.264;2023-03-01T05:18:33;101006.58;;;0.78;69.20
78064;BME280;67429;51.596;-3.264;2023-03-01T05:21:03;101000.02;;;1.12;67.75
78064;BME280;67429;51.596;-3.264;2023-03-01T05:23:24;101000.24;;;0.99;67.12
78064;BME280;67429;51.596;-3.264;2023-03-01T05:25:50;101000.72;;;1.52;67.25
78064;BME280;67429;51.596;-3.264;2023-03-01T05:28:15;101005.63;;;1.33;66.18
78064;BME280;67429;51.596;-3.264;2023-03-01T05:30:41;101004.82;;;1.21;66.55
78064;BME280;67429;51.596;-3.264;2023-03-01T05:33:08;100995.01;;;1.71;65.22
78064;BME280;67429;51.596;-3.264;2023-03-01T05:35:33;100997.41;;;0.78;67.26
78064;BME280;67429;51.596;-3.264;2023-03-01T05:37:59;100996.65;;;1.12;67.11
78064;BME280;67429;51.596;-3.264;2023-03-01T05:40:25;100993.89;;;1.18;66.75
78064;BME280;67429;51.596;-3.264;2023-03-01T05:42:53;100994.72;;;1.05;66.67
78064;BME280;67429;51.596;-3.264;2023-03-01T05:45:17;100992.17;;;0.73;67.93
78064;BME280;67429;51.596;-3.264;2023-03-01T05:47:43;100991.83;;;0.89;67.38
78064;BME280;67429;51.596;-3.264;2023-03-01T05:50:10;100989.97;;;1.21;66.16
78064;BME280;67429;51.596;-3.264;2023-03-01T05:52:33;100987.31;;;2.35;63.57
78064;BME280;67429;51.596;-3.264;2023-03-01T05:54:59;100992.61;;;1.88;63.96
78064;BME280;67429;51.596;-3.264;2023-03-01T05:57:25;100984.98;;;1.31;64.99
78064;BME280;67429;51.596;-3.264;2023-03-01T05:59:51;100987.77;;;1.14;65.87
78064;BME280;67429;51.596;-3.264;2023-03-01T06:02:17;100985.82;;;0.89;66.71
78064;BME280;67429;51.596;-3.264;2023-03-01T06:04:42;100980.97;;;1.00;66.70
78064;BME280;67429;51.596;-3.264;2023-03-01T06:07:08;100983.49;;;1.29;64.88
78064;BME280;67429;51.596;-3.264;2023-03-01T06:09:34;100980.32;;;1.94;63.17
78064;BME280;67429;51.596;-3.264;2023-03-01T06:11:59;100976.08;;;1.52;63.98
78064;BME280;67429;51.596;-3.264;2023-03-01T06:14:25;100986.58;;;1.75;63.34
78064;BME280;67429;51.596;-3.264;2023-03-01T06:16:51;100992.19;;;1.93;63.71
78064;BME280;67429;51.596;-3.264;2023-03-01T06:19:16;100986.96;;;1.47;64.00
78064;BME280;67429;51.596;-3.264;2023-03-01T06:21:42;100986.35;;;1.52;65.49
78064;BME280;67429;51.596;-3.264;2023-03-01T06:24:08;100984.29;;;1.36;64.98
78064;BME280;67429;51.596;-3.264;2023-03-01T06:26:34;100980.37;;;1.23;65.35
78064;BME280;67429;51.596;-3.264;2023-03-01T06:28:59;100983.26;;;0.93;66.52
78064;BME280;67429;51.596;-3.264;2023-03-01T06:31:25;100982.48;;;0.91;66.75
78064;BME280;67429;51.596;-3.264;2023-03-01T06:33:51;100977.34;;;0.20;68.28
78064;BME280;67429;51.596;-3.264;2023-03-01T06:36:17;100973.53;;;0.68;67.91
78064;BME280;67429;51.596;-3.264;2023-03-01T06:38:43;100975.76;;;0.94;67.27
78064;BME280;67429;51.596;-3.264;2023-03-01T06:41:08;100968.94;;;0.83;67.70
78064;BME280;67429;51.596;-3.264;2023-03-01T06:43:34;100968.88;;;0.79;67.70
78064;BME280;67429;51.596;-3.264;2023-03-01T06:46:02;100967.72;;;1.88;64.71
78064;BME280;67429;51.596;-3.264;2023-03-01T06:48:26;100970.73;;;1.12;65.84
78064;BME280;67429;51.596;-3.264;2023-03-01T06:50:52;100969.69;;;1.18;66.74
78064;BME280;67429;51.596;-3.264;2023-03-01T06:53:17;100971.22;;;2.16;64.16
78064;BME280;67429;51.596;-3.264;2023-03-01T06:55:43;100974.15;;;2.68;62.29
78064;BME280;67429;51.596;-3.264;2023-03-01T06:58:09;100982.13;;;2.76;61.08
78064;BME280;67429;51.596;-3.264;2023-03-01T07:00:35;100989.08;;;3.00;61.08
78064;BME280;67429;51.596;-3.264;2023-03-01T07:03:01;100985.82;;;1.49;63.70
78064;BME280;67429;51.596;-3.264;2023-03-01T07:05:26;100983.84;;;2.11;63.78
78064;BME280;67429;51.596;-3.264;2023-03-01T07:07:53;100989.30;;;1.88;63.59
78064;BME280;67429;51.596;-3.264;2023-03-01T07:10:18;100988.80;;;2.33;62.94
78064;BME280;67429;51.596;-3.264;2023-03-01T07:12:44;100995.03;;;2.54;61.34
78064;BME280;67429;51.596;-3.264;2023-03-01T07:15:10;100989.87;;;2.05;62.99
78064;BME280;67429;51.596;-3.264;2023-03-01T07:17:35;100994.40;;;1.78;64.56
78064;BME280;67429;51.596;-3.264;2023-03-01T07:20:01;100995.26;;;1.10;65.03
78064;BME280;67429;51.596;-3.264;2023-03-01T07:22:27;100997.49;;;2.49;62.84
78064;BME280;67429;51.596;-3.264;2023-03-01T07:24:53;101000.49;;;2.04;63.65
78064;BME280;67429;51.596;-3.264;2023-03-01T07:27:18;101012.28;;;3.29;60.71
78064;BME280;67429;51.596;-3.264;2023-03-01T07:29:44;101010.70;;;2.06;63.17
78064;BME280;67429;51.596;-3.264;2023-03-01T07:32:11;101011.72;;;2.29;63.86
78064;BME280;67429;51.596;-3.264;2023-03-01T07:34:36;101014.24;;;2.02;64.71
78064;BME280;67429;51.596;-3.264;2023-03-01T07:37:01;101019.72;;;2.81;61.97
78064;BME280;67429;51.596;-3.264;2023-03-01T07:39:27;101017.51;;;2.60;61.90
78064;BME280;67429;51.596;-3.264;2023-03-01T07:41:53;101024.77;;;2.67;62.16
78064;BME280;67429;51.596;-3.264;2023-03-01T07:44:19;101024.44;;;1.94;64.52
78064;BME280;67429;51.596;-3.264;2023-03-01T07:46:45;101029.02;;;2.79;62.05
78064;BME280;67429;51.596;-3.264;2023-03-01T07:49:10;101030.38;;;2.55;63.30
78064;BME280;67429;51.596;-3.264;2023-03-01T07:51:36;101024.47;;;2.49;63.39
78064;BME280;67429;51.596;-3.264;2023-03-01T07:54:02;101022.92;;;2.16;64.34
78064;BME280;67429;51.596;-3.264;2023-03-01T07:56:28;101027.44;;;0.94;67.65
78064;BME280;67429;51.596;-3.264;2023-03-01T07:58:53;101031.03;;;1.22;67.30
78064;BME280;67429;51.596;-3.264;2023-03-01T08:01:20;101027.27;;;1.52;66.34
78064;BME280;67429;51.596;-3.264;2023-03-01T08:03:46;101031.19;;;1.11;67.39
78064;BME280;67429;51.596;-3.264;2023-03-01T08:06:12;101034.01;;;1.60;67.79
78064;BME280;67429;51.596;-3.264;2023-03-01T08:08:37;101034.26;;;1.40;67.76
78064;BME280;67429;51.596;-3.264;2023-03-01T08:11:05;101041.23;;;1.51;67.74
78064;BME280;67429;51.596;-3.264;2023-03-01T08:13:29;101046.00;;;1.48;67.26
78064;BME280;67429;51.596;-3.264;2023-03-01T08:15:59;101048.36;;;2.70;64.28
78064;BME280;67429;51.596;-3.264;2023-03-01T08:18:21;101052.44;;;2.62;62.51
78064;BME280;67429;51.596;-3.264;2023-03-01T08:20:46;101062.89;;;2.64;63.85
78064;BME280;67429;51.596;-3.264;2023-03-01T08:23:12;101063.87;;;3.20;61.58
78064;BME280;67429;51.596;-3.264;2023-03-01T08:25:37;101065.65;;;1.74;64.17
78064;BME280;67429;51.596;-3.264;2023-03-01T08:28:03;101065.83;;;2.22;64.30
78064;BME280;67429;51.596;-3.264;2023-03-01T08:30:29;101063.51;;;1.31;66.51
78064;BME280;67429;51.596;-3.264;2023-03-01T08:32:54;101054.93;;;2.52;64.49
78064;BME280;67429;51.596;-3.264;2023-03-01T08:35:20;101052.46;;;3.47;61.58
78064;BME280;67429;51.596;-3.264;2023-03-01T08:37:46;101051.69;;;2.92;61.92
78064;BME280;67429;51.596;-3.264;2023-03-01T08:40:12;101050.78;;;2.85;61.40
78064;BME280;67429;51.596;-3.264;2023-03-01T08:42:38;101048.63;;;3.62;60.29
78064;BME280;67429;51.596;-3.264;2023-03-01T08:45:04;101040.78;;;4.64;58.02
78064;BME280;67429;51.596;-3.264;2023-03-01T08:47:29;101035.89;;;3.38;58.62
78064;BME280;67429;51.596;-3.264;2023-03-01T08:49:55;101040.41;;;3.48;58.04
78064;BME280;67429;51.596;-3.264;2023-03-01T08:52:21;101037.31;;;3.04;57.71
78064;BME280;67429;51.596;-3.264;2023-03-01T08:54:48;101035.53;;;2.79;60.72
78064;BME280;67429;51.596;-3.264;2023-03-01T08:57:12;101033.07;;;2.13;61.20
78064;BME280;67429;51.596;-3.264;2023-03-01T08:59:38;101028.06;;;2.40;61.32
78064;BME280;67429;51.596;-3.264;2023-03-01T09:02:04;101032.32;;;3.19;59.97
78064;BME280;67429;51.596;-3.264;2023-03-01T09:04:30;101036.45;;;2.57;59.97
78064;BME280;67429;51.596;-3.264;2023-03-01T09:06:55;101033.25;;;3.04;59.25
78064;BME280;67429;51.596;-3.264;2023-03-01T09:09:21;101025.62;;;2.16;61.13
78064;BME280;67429;51.596;-3.264;2023-03-01T09:11:47;101023.46;;;2.00;62.04
78064;BME280;67429;51.596;-3.264;2023-03-01T09:14:13;101024.19;;;2.14;61.73
78064;BME280;67429;51.596;-3.264;2023-03-01T09:16:38;101016.86;;;2.32;61.31
78064;BME280;67429;51.596;-3.264;2023-03-01T09:19:04;101019.39;;;2.02;63.02
78064;BME280;67429;51.596;-3.264;2023-03-01T09:21:30;101019.22;;;2.82;61.49
78064;BME280;67429;51.596;-3.264;2023-03-01T09:23:56;101014.66;;;2.94;61.13
78064;BME280;67429;51.596;-3.264;2023-03-01T09:26:22;101023.40;;;2.54;60.97
78064;BME280;67429;51.596;-3.264;2023-03-01T09:28:48;101020.99;;;2.58;61.93
78064;BME280;67429;51.596;-3.264;2023-03-01T09:31:14;101010.36;;;2.28;61.30
78064;BME280;67429;51.596;-3.264;2023-03-01T09:33:39;101014.10;;;2.29;62.98
78064;BME280;67429;51.596;-3.264;2023-03-01T09:36:06;101020.68;;;2.23;63.72
78064;BME280;67429;51.596;-3.264;2023-03-01T09:38:31;101015.29;;;2.14;63.03
78064;BME280;67429;51.596;-3.264;2023-03-01T09:40:56;101016.16;;;2.31;63.68
78064;BME280;67429;51.596;-3.264;2023-03-01T09:43:26;101028.31;;;2.15;62.78
78064;BME280;67429;51.596;-3.264;2023-03-01T09:45:48;101027.46;;;1.70;63.28
78064;BME280;67429;51.596;-3.264;2023-03-01T09:48:16;101021.06;;;1.97;64.08
78064;BME280;67429;51.596;-3.264;2023-03-01T09:50:41;101022.26;;;2.42;62.97
78064;BME280;67429;51.596;-3.264;2023-03-01T09:53:07;101016.57;;;2.62;62.20
78064;BME280;67429;51.596;-3.264;2023-03-01T09:55:32;101015.14;;;3.20;61.69
78064;BME280;67429;51.596;-3.264;2023-03-01T09:58:00;101016.00;;;2.16;62.96
78064;BME280;67429;51.596;-3.264;2023-03-01T10:00:30;101012.69;;;1.73;64.79
78064;BME280;67429;51.596;-3.264;2023-03-01T10:02:51;101014.83;;;2.14;63.48
78064;BME280;67429;51.596;-3.264;2023-03-01T10:05:25;101005.88;;;1.65;64.02
78064;BME280;67429;51.596;-3.264;2023-03-01T10:07:45;101006.88;;;1.91;63.60
78064;BME280;67429;51.596;-3.264;2023-03-01T10:10:05;101004.85;;;1.69;63.12
78064;BME280;67429;51.596;-3.264;2023-03-01T10:12:35;101004.16;;;2.52;61.83
78064;BME280;67429;51.596;-3.264;2023-03-01T10:15:02;101002.31;;;2.16;61.06
78064;BME280;67429;51.596;-3.264;2023-03-01T10:17:30;100987.66;;;3.35;59.24
78064;BME280;67429;51.596;-3.264;2023-03-01T10:19:48;100980.64;;;4.41;57.97
78064;BME280;67429;51.596;-3.264;2023-03-01T10:22:16;100977.24;;;4.62;55.59
78064;BME280;67429;51.596;-3.264;2023-03-01T10:24:39;100988.56;;;3.75;56.77
78064;BME280;67429;51.596;-3.264;2023-03-01T10:27:08;100991.86;;;3.35;57.00
78064;BME280;67429;51.596;-3.264;2023-03-01T10:29:37;100986.59;;;3.90;56.78
78064;BME280;67429;51.596;-3.264;2023-03-01T10:31:56;100991.50;;;3.21;57.86
78064;BME280;67429;51.596;-3.264;2023-03-01T10:34:28;100992.16;;;3.31;58.62
78064;BME280;67429;51.596;-3.264;2023-03-01T10:36:51;100976.26;;;2.82;60.16
78064;BME280;67429;51.596;-3.264;2023-03-01T10:39:16;100979.96;;;2.57;61.62
78064;BME280;67429;51.596;-3.264;2023-03-01T10:41:54;100986.60;;;2.29;59.81
78064;BME280;67429;51.596;-3.264;2023-03-01T10:44:05;100977.90;;;2.26;60.52
78064;BME280;67429;51.596;-3.264;2023-03-01T10:46:32;100979.49;;;1.98;61.25
78064;BME280;67429;51.596;-3.264;2023-03-01T10:51:22;100981.72;;;3.57;58.75
78064;BME280;67429;51.596;-3.264;2023-03-01T10:53:49;100974.46;;;3.45;59.57
78064;BME280;67429;51.596;-3.264;2023-03-01T10:56:15;100967.57;;;3.24;59.33
78064;BME280;67429;51.596;-3.264;2023-03-01T10:58:41;100970.87;;;3.44;58.88
78064;BME280;67429;51.596;-3.264;2023-03-01T11:01:08;100954.16;;;3.85;60.54
78064;BME280;67429;51.596;-3.264;2023-03-01T11:03:33;100950.12;;;4.71;56.23
78064;BME280;67429;51.596;-3.264;2023-03-01T11:06:02;100941.76;;;5.74;55.37
78064;BME280;67429;51.596;-3.264;2023-03-01T11:08:33;100936.22;;;6.36;54.29
78064;BME280;67429;51.596;-3.264;2023-03-01T11:10:48;100929.58;;;6.39;50.12
78064;BME280;67429;51.596;-3.264;2023-03-01T11:13:16;100919.81;;;6.19;52.33
78064;BME280;67429;51.596;-3.264;2023-03-01T11:15:40;100925.45;;;4.91;53.26
78064;BME280;67429;51.596;-3.264;2023-03-01T11:20:33;100930.25;;;5.01;53.92
78064;BME280;67429;51.596;-3.264;2023-03-01T11:23:00;100928.61;;;3.47;56.35
78064;BME280;67429;51.596;-3.264;2023-03-01T11:25:26;100927.88;;;3.74;56.56
78064;BME280;67429;51.596;-3.264;2023-03-01T11:27:48;100929.62;;;3.44;57.46
78064;BME280;67429;51.596;-3.264;2023-03-01T11:30:19;100929.42;;;2.70;58.12
78064;BME280;67429;51.596;-3.264;2023-03-01T11:32:43;100928.16;;;2.93;61.05
78064;BME280;67429;51.596;-3.264;2023-03-01T11:35:10;100929.50;;;2.32;61.99
78064;BME280;67429;51.596;-3.264;2023-03-01T11:37:36;100924.49;;;2.02;63.62
78064;BME280;67429;51.596;-3.264;2023-03-01T11:40:05;100929.74;;;2.76;63.16
78064;BME280;67429;51.596;-3.264;2023-03-01T11:42:29;100929.71;;;3.15;61.39
78064;BME280;67429;51.596;-3.264;2023-03-01T11:44:54;100931.77;;;2.76;61.08
78064;BME280;67429;51.596;-3.264;2023-03-01T11:47:25;100923.74;;;3.81;59.46
78064;BME280;67429;51.596;-3.264;2023-03-01T11:49:49;100916.42;;;4.00;58.19
78064;BME280;67429;51.596;-3.264;2023-03-01T11:52:11;100912.13;;;3.68;58.12
78064;BME280;67429;51.596;-3.264;2023-03-01T11:54:42;100906.84;;;4.49;57.92
78064;BME280;67429;51.596;-3.264;2023-03-01T11:57:02;100903.48;;;4.58;56.36
78064;BME280;67429;51.596;-3.264;2023-03-01T11:59:42;100903.81;;;4.46;56.22
78064;BME280;67429;51.596;-3.264;2023-03-01T12:01:59;100892.20;;;5.36;55.92
78064;BME280;67429;51.596;-3.264;2023-03-01T12:04:34;100889.34;;;5.11;55.38
78064;BME280;67429;51.596;-3.264;2023-03-01T12:06:48;100891.18;;;4.52;56.23
78064;BME280;67429;51.596;-3.264;2023-03-01T12:09:17;100891.74;;;3.23;59.78
78064;BME280;67429;51.596;-3.264;2023-03-01T12:11:43;100899.77;;;2.34;64.26
78064;BME280;67429;51.596;-3.264;2023-03-01T12:14:11;100888.31;;;1.81;65.25
78064;BME280;67429;51.596;-3.264;2023-03-01T12:16:34;100883.34;;;3.11;62.36
78064;BME280;67429;51.596;-3.264;2023-03-01T12:19:01;100877.15;;;3.23;62.95
78064;BME280;67429;51.596;-3.264;2023-03-01T12:21:23;100870.69;;;3.28;61.50
78064;BME280;67429;51.596;-3.264;2023-03-01T12:23:56;100867.21;;;3.19;62.79
78064;BME280;67429;51.596;-3.264;2023-03-01T12:26:10;100863.20;;;4.02;60.01
78064;BME280;67429;51.596;-3.264;2023-03-01T12:28:48;100852.33;;;3.70;60.10
78064;BME280;67429;51.596;-3.264;2023-03-01T12:31:10;100863.94;;;3.45;60.74
78064;BME280;67429;51.596;-3.264;2023-03-01T12:33:32;100866.80;;;2.96;60.60
78064;BME280;67429;51.596;-3.264;2023-03-01T12:35:59;100850.21;;;3.77;60.92
78064;BME280;67429;51.596;-3.264;2023-03-01T12:38:25;100849.33;;;3.71;58.64
78064;BME280;67429;51.596;-3.264;2023-03-01T12:41:04;100846.78;;;2.86;61.34
78064;BME280;67429;51.596;-3.264;2023-03-01T12:43:15;100843.63;;;3.04;61.08
78064;BME280;67429;51.596;-3.264;2023-03-01T12:45:44;100844.98;;;2.58;63.16
78064;BME280;67429;51.596;-3.264;2023-03-01T12:48:07;100838.55;;;2.36;64.95